Steelville, Ohio
Current Conditions -  °F | °C
As of 10:53 AM on Friday 28 Nov 2014 (Local Time) from KLUK Reporting Station
Broken Clouds Broken Clouds  
Wind Chill: 22°   Ceiling: 8000
Heat Index: 31°   Visibility: 10mi
Dew Point: 19°   Wind: 10mph
Humidity: 61%   Direction: 200°SSW
Pressure: 30.41"   Gusts: NA
Location:  39.23°N, 84.2394°W
Report Text: KLUK 281553Z 20009KT 10SM FEW031 SCT070 BKN080 M01/M07 A3041 RMK AO2 SLP302 T10061072
Loading
Personal Weather Stations






























Interactive Weather Map New forecast layout! Learn more

10-Day Weather Forecast

Advertisements
Track Severe Weather on mobile